Time;durP1;ratioP1;P1;durP2;ratioP2;P2;SDS_P1;SDS_P2;PMS_P1;PMS_P2;Temp;Humidity;BMP_temperature;BMP_pressure;BME280_temperature;BME280_humidity;BME280_pressure;Samples;Min_cycle;Max_cycle;Signal;HPM_P1;HPM_P2
2021/01/24 00:00:30;;;;;;;15.05;7.93;;;5.50;99.90;;;;;;4149872;28;20474;-84
2021/01/24 00:02:31;;;;;;;16.00;8.75;;;5.40;99.90;;;;;;4145384;28;20030;-84
2021/01/24 00:04:32;;;;;;;13.85;8.85;;;5.40;99.90;;;;;;4145761;28;20031;-84
2021/01/24 00:06:37;;;;;;;12.95;8.50;;;5.30;99.90;;;;;;4169845;28;20041;-84
2021/01/24 00:08:37;;;;;;;16.25;9.43;;;5.30;99.90;;;;;;4179130;28;20048;-83
2021/01/24 00:10:41;;;;;;;13.77;8.85;;;5.20;99.90;;;;;;4153587;28;20026;-84
2021/01/24 00:12:41;;;;;;;18.63;9.85;;;5.10;99.90;;;;;;4161133;28;20079;-84
2021/01/24 00:14:44;;;;;;;15.05;9.20;;;5.10;99.90;;;;;;4166520;28;20124;-84
2021/01/24 00:16:45;;;;;;;14.73;8.90;;;5.00;99.90;;;;;;4155453;28;20034;-84
2021/01/24 00:18:45;;;;;;;14.38;8.80;;;5.00;99.90;;;;;;4147172;28;20037;-84
2021/01/24 00:20:46;;;;;;;15.43;9.43;;;4.90;99.90;;;;;;4170155;28;20037;-84
2021/01/24 00:22:53;;;;;;;18.70;10.07;;;4.90;99.90;;;;;;4146418;28;20442;-84
2021/01/24 00:24:54;;;;;;;14.05;8.65;;;4.90;99.90;;;;;;4151059;28;20088;-84
2021/01/24 00:26:54;;;;;;;13.70;8.70;;;4.80;99.90;;;;;;4163385;28;20033;-84
2021/01/24 00:28:55;;;;;;;15.95;9.40;;;4.90;99.90;;;;;;4166817;28;20040;-84
2021/01/24 00:30:56;;;;;;;15.40;8.95;;;4.80;99.90;;;;;;4164523;28;20061;-84
2021/01/24 00:32:56;;;;;;;16.20;9.75;;;4.80;99.90;;;;;;4161456;28;20045;-84
2021/01/24 00:34:57;;;;;;;13.55;8.98;;;4.80;99.90;;;;;;4148532;28;20038;-84
2021/01/24 00:37:00;;;;;;;16.13;10.63;;;4.70;99.90;;;;;;4161636;28;20045;-84
2021/01/24 00:39:01;;;;;;;15.85;9.63;;;4.60;99.90;;;;;;4153119;28;20045;-84
2021/01/24 00:41:04;;;;;;;16.40;9.93;;;4.50;99.90;;;;;;4181622;28;20349;-84
2021/01/24 00:43:05;;;;;;;15.15;10.65;;;4.40;99.90;;;;;;4161987;28;20025;-84
2021/01/24 00:45:07;;;;;;;17.13;10.93;;;4.30;99.90;;;;;;4164262;28;20060;-84
2021/01/24 00:47:20;;;;;;;;;;;4.20;99.90;;;;;;4162599;28;20135;-84
2021/01/24 00:49:21;;;;;;;13.32;9.80;;;4.20;99.90;;;;;;4175943;28;19919;-84
2021/01/24 00:51:22;;;;;;;12.95;9.05;;;4.20;99.90;;;;;;4156693;28;20070;-84
2021/01/24 00:53:22;;;;;;;13.90;8.63;;;4.00;99.90;;;;;;4150899;28;20034;-84
2021/01/24 00:55:23;;;;;;;13.52;9.23;;;4.00;99.90;;;;;;4157619;28;20509;-84
2021/01/24 00:57:25;;;;;;;17.08;10.75;;;4.00;99.90;;;;;;4156924;28;20061;-84
2021/01/24 00:59:26;;;;;;;;;;;4.00;99.90;;;;;;4147016;28;20049;-84
2021/01/24 01:01:26;;;;;;;14.60;9.95;;;3.90;99.90;;;;;;4148934;28;19913;-84
2021/01/24 01:03:27;;;;;;;14.95;10.23;;;3.80;99.90;;;;;;4161474;28;20033;-84
2021/01/24 01:05:28;;;;;;;15.80;10.75;;;3.80;99.90;;;;;;4154237;28;20080;-84
2021/01/24 01:07:29;;;;;;;15.60;10.95;;;3.70;99.90;;;;;;4161454;28;20366;-84
2021/01/24 01:09:29;;;;;;;16.45;10.95;;;3.70;99.90;;;;;;4157095;28;20033;-84
2021/01/24 01:11:30;;;;;;;14.82;10.80;;;3.70;99.90;;;;;;4162143;28;20050;-84
2021/01/24 01:13:30;;;;;;;14.30;10.15;;;3.60;99.90;;;;;;4143647;28;20026;-84
2021/01/24 01:15:34;;;;;;;15.57;10.50;;;3.50;99.90;;;;;;4162239;28;20029;-84
2021/01/24 01:17:34;;;;;;;13.45;8.88;;;3.40;99.90;;;;;;4166085;28;20033;-84
2021/01/24 01:19:35;;;;;;;13.65;9.40;;;3.30;99.90;;;;;;4166859;28;20037;-84
2021/01/24 01:21:36;;;;;;;9.52;7.38;;;3.20;99.90;;;;;;4161804;28;20052;-84
2021/01/24 01:23:37;;;;;;;13.10;8.30;;;3.10;99.90;;;;;;4182650;28;20021;-84
2021/01/24 01:25:38;;;;;;;9.77;7.23;;;3.10;99.90;;;;;;4150248;28;20037;-84
2021/01/24 01:27:39;;;;;;;9.60;6.88;;;3.00;99.90;;;;;;4145621;28;20442;-84
2021/01/24 01:29:39;;;;;;;9.02;6.78;;;3.00;99.90;;;;;;4153002;28;20164;-83
2021/01/24 01:31:40;;;;;;;9.45;6.65;;;2.90;99.90;;;;;;4160348;28;20143;-83
2021/01/24 01:33:40;;;;;;;9.98;6.72;;;2.80;99.90;;;;;;4162629;28;20393;-83
2021/01/24 01:35:41;;;;;;;9.70;7.15;;;2.80;99.90;;;;;;4157550;28;20493;-83
2021/01/24 01:37:42;;;;;;;8.98;6.78;;;2.80;99.90;;;;;;4140648;28;20542;-83
2021/01/24 01:39:45;;;;;;;8.68;6.80;;;2.70;99.90;;;;;;4162027;28;20041;-83
2021/01/24 01:41:46;;;;;;;9.02;6.30;;;2.60;99.90;;;;;;4172931;28;20037;-83
2021/01/24 01:43:46;;;;;;;9.05;5.82;;;2.60;99.90;;;;;;4134607;28;20493;-83
2021/01/24 01:45:47;;;;;;;8.02;6.07;;;2.60;99.90;;;;;;4168529;28;20034;-83
2021/01/24 01:47:48;;;;;;;8.00;5.65;;;2.60;99.90;;;;;;4161000;28;20029;-83
2021/01/24 01:49:52;;;;;;;7.00;5.50;;;2.60;99.90;;;;;;4148273;28;20048;-83
2021/01/24 01:52:01;;;;;;;7.60;5.63;;;2.60;99.90;;;;;;4151210;28;20041;-83
2021/01/24 01:54:02;;;;;;;6.70;4.90;;;2.50;99.90;;;;;;4145028;28;20038;-83
2021/01/24 01:56:02;;;;;;;6.25;4.70;;;2.50;99.90;;;;;;4166160;28;20053;-83
2021/01/24 01:58:03;;;;;;;5.32;4.43;;;2.50;99.90;;;;;;4130886;28;20640;-83
2021/01/24 02:00:06;;;;;;;6.47;5.03;;;2.40;99.90;;;;;;4144880;28;20414;-83
2021/01/24 02:02:28;;;;;;;6.32;4.60;;;2.40;99.90;;;;;;4168144;28;20037;-83
2021/01/24 02:04:31;;;;;;;6.05;4.15;;;2.40;99.90;;;;;;4180849;28;20041;-83
2021/01/24 02:06:47;;;;;;;4.85;4.05;;;2.30;99.90;;;;;;4155992;28;20054;-83
2021/01/24 02:09:23;;;;;;;3.95;3.47;;;2.30;99.90;;;;;;4164041;28;20037;-83
2021/01/24 02:11:34;;;;;;;4.25;3.53;;;2.30;99.90;;;;;;4156989;28;20097;-83
2021/01/24 02:13:53;;;;;;;4.85;3.90;;;2.30;99.90;;;;;;4165197;28;20037;-83
2021/01/24 02:15:57;;;;;;;3.60;2.90;;;2.20;99.90;;;;;;4167193;28;20617;-83
2021/01/24 02:18:03;;;;;;;4.65;3.45;;;2.20;99.90;;;;;;4180254;28;20033;-83
2021/01/24 02:20:11;;;;;;;3.85;2.90;;;2.20;99.90;;;;;;4163256;28;20452;-83
2021/01/24 02:22:13;;;;;;;3.58;2.80;;;2.20;99.90;;;;;;4163929;28;20037;-83
2021/01/24 02:24:16;;;;;;;3.95;3.00;;;2.20;99.90;;;;;;4164226;28;20512;-83
2021/01/24 02:26:26;;;;;;;3.35;2.53;;;2.20;99.90;;;;;;4153112;28;20033;-83
2021/01/24 02:28:55;;;;;;;3.28;2.53;;;2.20;99.90;;;;;;4166952;28;20060;-83
2021/01/24 02:31:00;;;;;;;3.15;2.47;;;2.20;99.90;;;;;;4164145;28;20040;-83
2021/01/24 02:33:18;;;;;;;3.03;2.42;;;2.20;99.90;;;;;;4166062;28;20124;-83
2021/01/24 02:35:20;;;;;;;4.10;3.25;;;2.20;99.90;;;;;;4168329;28;20029;-84
2021/01/24 02:37:23;;;;;;;3.70;2.75;;;2.20;99.90;;;;;;4153179;28;20069;-83
2021/01/24 02:39:23;;;;;;;3.90;3.10;;;2.20;99.90;;;;;;4163858;28;20064;-83
2021/01/24 02:41:25;;;;;;;4.05;2.88;;;2.20;99.90;;;;;;4147586;28;20030;-83
2021/01/24 02:43:27;;;;;;;4.47;3.20;;;2.10;99.90;;;;;;4164902;28;20525;-83
2021/01/24 02:45:27;;;;;;;3.88;3.05;;;2.10;99.90;;;;;;4147845;28;20367;-83
2021/01/24 02:47:31;;;;;;;4.13;3.20;;;2.20;99.90;;;;;;4180662;28;20044;-83
2021/01/24 02:49:35;;;;;;;3.10;2.58;;;2.10;99.90;;;;;;4161294;28;20037;-83
2021/01/24 02:51:37;;;;;;;9.05;3.97;;;2.10;99.90;;;;;;4173225;28;20045;-84
2021/01/24 02:53:39;;;;;;;5.07;3.83;;;2.10;99.90;;;;;;4157513;28;20478;-84
2021/01/24 02:55:41;;;;;;;4.57;3.45;;;2.10;99.90;;;;;;4169576;28;20523;-84
2021/01/24 02:57:49;;;;;;;;;;;2.10;99.90;;;;;;4157587;28;20104;-84
2021/01/24 02:59:57;;;;;;;5.20;4.18;;;2.10;99.90;;;;;;4163436;28;20344;-83
2021/01/24 03:01:58;;;;;;;8.43;4.38;;;2.00;99.90;;;;;;4168828;28;20045;-83
2021/01/24 03:03:59;;;;;;;5.80;4.50;;;2.10;99.90;;;;;;4147119;28;20080;-83
2021/01/24 03:06:09;;;;;;;4.87;3.50;;;2.10;99.90;;;;;;4171005;28;20583;-83
2021/01/24 03:08:11;;;;;;;5.90;4.55;;;2.10;99.90;;;;;;4154310;28;20099;-83
2021/01/24 03:10:20;;;;;;;7.03;5.20;;;2.10;99.90;;;;;;4169248;28;20044;-83
2021/01/24 03:12:25;;;;;;;7.22;5.50;;;2.00;99.90;;;;;;4167940;28;20721;-83
2021/01/24 03:14:27;;;;;;;7.85;5.80;;;2.00;99.90;;;;;;4146658;28;20046;-83
2021/01/24 03:16:29;;;;;;;8.30;6.53;;;2.10;99.90;;;;;;4181334;28;20045;-83
2021/01/24 03:18:33;;;;;;;;;;;2.10;99.90;;;;;;4166368;28;20049;-83
2021/01/24 03:20:38;;;;;;;10.48;6.93;;;2.10;99.90;;;;;;4147058;28;19925;-83
2021/01/24 03:22:39;;;;;;;9.25;6.80;;;2.10;99.90;;;;;;4170107;28;20582;-83
2021/01/24 03:24:43;;;;;;;9.88;7.00;;;2.10;99.90;;;;;;4147124;28;20061;-84
2021/01/24 03:26:47;;;;;;;11.73;8.38;;;2.00;99.90;;;;;;4162369;28;20056;-84
2021/01/24 03:28:47;;;;;;;10.43;7.38;;;2.10;99.90;;;;;;4164322;28;20433;-84
2021/01/24 03:30:51;;;;;;;11.10;7.68;;;2.10;99.90;;;;;;4146432;28;20037;-84
2021/01/24 03:32:52;;;;;;;11.32;7.65;;;2.10;99.90;;;;;;4165256;28;20049;-84
2021/01/24 03:34:53;;;;;;;10.90;7.53;;;2.10;99.90;;;;;;4171953;28;20042;-84
2021/01/24 03:36:58;;;;;;;12.88;8.07;;;2.10;99.90;;;;;;4165638;28;20037;-84
2021/01/24 03:38:59;;;;;;;10.13;7.32;;;2.10;99.90;;;;;;4148015;28;20026;-84
2021/01/24 03:40:59;;;;;;;12.70;8.02;;;2.00;99.90;;;;;;4163438;28;20052;-84
2021/01/24 03:43:00;;;;;;;10.60;7.57;;;2.10;99.90;;;;;;4153872;28;20051;-84
2021/01/24 03:45:01;;;;;;;10.93;7.47;;;2.10;99.90;;;;;;4178139;28;20451;-84
2021/01/24 03:47:02;;;;;;;11.20;7.43;;;2.10;99.90;;;;;;4171959;28;20029;-84
2021/01/24 03:49:03;;;;;;;9.82;6.65;;;2.10;99.90;;;;;;4146832;28;20034;-84
2021/01/24 03:51:04;;;;;;;11.40;7.55;;;2.00;99.90;;;;;;4146174;28;20092;-84
2021/01/24 03:53:18;;;;;;;11.93;7.43;;;2.00;99.90;;;;;;4150792;28;20029;-84
2021/01/24 03:55:19;;;;;;;10.65;7.22;;;2.10;99.90;;;;;;4163686;28;20116;-84
2021/01/24 03:57:19;;;;;;;9.77;6.63;;;2.00;99.90;;;;;;4163393;28;20034;-84
2021/01/24 03:59:20;;;;;;;9.82;6.32;;;2.10;99.90;;;;;;4148041;28;20576;-84
2021/01/24 04:01:29;;;;;;;9.85;6.32;;;2.00;99.90;;;;;;4145601;28;20636;-84
2021/01/24 04:03:30;;;;;;;9.82;6.20;;;2.00;99.90;;;;;;4164334;28;20100;-85
2021/01/24 04:05:31;;;;;;;7.63;5.28;;;2.00;99.90;;;;;;4162788;28;20835;-84
2021/01/24 04:07:31;;;;;;;8.57;5.57;;;2.00;99.90;;;;;;4148734;28;20637;-84
2021/01/24 04:09:33;;;;;;;7.65;4.65;;;2.10;99.90;;;;;;4161154;28;20041;-84
2021/01/24 04:11:36;;;;;;;6.75;4.53;;;2.00;99.90;;;;;;4142337;28;20470;-84
2021/01/24 04:13:38;;;;;;;7.15;4.57;;;2.00;99.90;;;;;;4162431;28;20030;-84
2021/01/24 04:15:39;;;;;;;6.10;3.78;;;2.10;99.90;;;;;;4146039;28;20721;-84
2021/01/24 04:17:40;;;;;;;5.95;3.35;;;2.00;99.90;;;;;;4171794;28;20033;-84
2021/01/24 04:19:43;;;;;;;3.90;2.90;;;2.00;99.90;;;;;;4147836;28;20034;-84
2021/01/24 04:21:44;;;;;;;4.97;2.63;;;2.00;99.90;;;;;;4161929;28;20097;-84
2021/01/24 04:23:44;;;;;;;4.88;2.70;;;2.00;99.90;;;;;;4153575;28;20026;-84
2021/01/24 04:25:45;;;;;;;5.65;2.22;;;2.00;99.90;;;;;;4146462;28;20144;-84
2021/01/24 04:27:46;;;;;;;3.63;2.47;;;2.00;99.90;;;;;;4152596;28;20032;-84
2021/01/24 04:29:48;;;;;;;4.80;2.38;;;2.00;99.90;;;;;;4162870;28;20029;-84
2021/01/24 04:31:49;;;;;;;;;;;2.00;99.90;;;;;;4162619;28;20052;-84
2021/01/24 04:33:50;;;;;;;4.10;2.30;;;2.00;99.90;;;;;;4161706;28;19971;-84
2021/01/24 04:35:51;;;;;;;6.72;2.15;;;2.00;99.90;;;;;;4146473;28;20768;-84
2021/01/24 04:37:51;;;;;;;4.57;2.25;;;2.00;99.90;;;;;;4161788;28;20085;-84
2021/01/24 04:39:52;;;;;;;3.90;1.90;;;2.00;99.90;;;;;;4161714;28;20725;-84
2021/01/24 04:41:53;;;;;;;2.58;1.90;;;2.00;99.90;;;;;;4163107;28;21155;-84
2021/01/24 04:43:54;;;;;;;2.30;2.10;;;2.00;99.90;;;;;;4150839;28;20087;-84
2021/01/24 04:46:03;;;;;;;2.70;1.70;;;2.00;99.90;;;;;;4153785;28;20491;-84
2021/01/24 04:48:05;;;;;;;2.33;1.85;;;2.00;99.90;;;;;;4161572;28;20037;-84
2021/01/24 04:50:07;;;;;;;3.45;2.13;;;2.00;99.90;;;;;;4163009;28;20041;-84
2021/01/24 04:52:07;;;;;;;4.90;2.30;;;2.00;99.90;;;;;;4144307;28;20033;-84
2021/01/24 04:54:09;;;;;;;3.03;1.60;;;2.10;99.90;;;;;;4139970;28;20033;-84
2021/01/24 04:56:10;;;;;;;4.28;1.60;;;2.00;99.90;;;;;;4159235;28;20128;-84
2021/01/24 04:58:11;;;;;;;4.13;2.10;;;2.10;99.90;;;;;;4176955;28;20033;-84
2021/01/24 05:00:13;;;;;;;2.92;1.70;;;2.00;99.90;;;;;;4181221;28;20156;-84
2021/01/24 05:02:14;;;;;;;4.43;1.85;;;2.00;99.90;;;;;;4161343;28;20697;-84
2021/01/24 05:04:15;;;;;;;3.42;1.60;;;2.00;99.90;;;;;;4149800;28;20021;-84
2021/01/24 05:06:16;;;;;;;5.20;1.88;;;2.00;99.90;;;;;;4172989;28;20141;-83
2021/01/24 05:08:17;;;;;;;2.08;1.60;;;2.00;99.90;;;;;;4157936;28;20521;-83
2021/01/24 05:10:48;;;;;;;2.08;1.40;;;2.10;99.90;;;;;;4154680;28;20041;-83
2021/01/24 05:12:49;;;;;;;3.03;2.20;;;2.00;99.90;;;;;;4161792;28;20049;-83
2021/01/24 05:14:50;;;;;;;2.78;1.67;;;2.10;99.90;;;;;;4145176;28;20034;-83
2021/01/24 05:16:53;;;;;;;5.25;2.15;;;2.10;99.90;;;;;;4161408;28;20044;-83
2021/01/24 05:18:57;;;;;;;3.42;2.05;;;2.10;99.90;;;;;;4168641;28;20040;-83
2021/01/24 05:21:04;;;;;;;3.00;1.88;;;2.10;99.90;;;;;;4148377;28;20041;-83
2021/01/24 05:23:08;;;;;;;3.90;1.75;;;2.10;99.90;;;;;;4162373;28;20141;-83
2021/01/24 05:25:20;;;;;;;5.47;1.85;;;2.10;99.90;;;;;;4162851;28;20052;-83
2021/01/24 05:27:25;;;;;;;3.40;2.00;;;2.10;99.90;;;;;;4145834;28;20034;-83
2021/01/24 05:29:39;;;;;;;2.17;1.60;;;2.10;99.90;;;;;;4166291;28;20048;-83
2021/01/24 05:31:44;;;;;;;3.60;2.03;;;2.10;99.90;;;;;;4161038;28;20033;-83
2021/01/24 05:33:46;;;;;;;3.75;2.00;;;2.10;99.90;;;;;;4144046;28;20395;-83
2021/01/24 05:35:52;;;;;;;2.05;1.73;;;2.20;99.90;;;;;;4160667;28;20381;-83
2021/01/24 05:37:53;;;;;;;2.83;2.25;;;2.20;99.90;;;;;;4164488;28;20029;-83
2021/01/24 05:39:56;;;;;;;4.28;2.80;;;2.10;99.90;;;;;;4148417;28;20046;-83
2021/01/24 05:41:59;;;;;;;4.30;2.95;;;2.10;99.90;;;;;;4153492;28;20103;-83
2021/01/24 05:44:00;;;;;;;5.25;3.45;;;2.10;99.90;;;;;;4147613;28;20037;-83
2021/01/24 05:46:00;;;;;;;6.63;3.60;;;2.20;99.90;;;;;;4164113;28;20038;-83
2021/01/24 05:48:04;;;;;;;5.75;3.75;;;2.20;99.90;;;;;;4150928;28;20505;-83
2021/01/24 05:50:09;;;;;;;7.43;4.50;;;2.20;99.90;;;;;;4155515;28;20453;-83
2021/01/24 05:52:11;;;;;;;7.07;4.15;;;2.20;99.90;;;;;;4183573;28;20040;-83
2021/01/24 05:54:15;;;;;;;6.25;3.83;;;2.20;99.90;;;;;;4176645;28;20520;-83
2021/01/24 05:56:18;;;;;;;6.63;3.95;;;2.20;99.90;;;;;;4161720;28;20037;-83
2021/01/24 05:58:23;;;;;;;;;;;2.30;99.90;;;;;;4148284;28;20041;-83
2021/01/24 06:00:36;;;;;;;8.93;5.10;;;2.30;99.90;;;;;;4169051;28;19999;-83
2021/01/24 06:02:39;;;;;;;9.13;5.20;;;2.30;99.90;;;;;;4148695;28;20042;-83
2021/01/24 06:04:41;;;;;;;9.25;5.53;;;2.30;99.90;;;;;;4172927;28;20057;-83
2021/01/24 06:06:41;;;;;;;14.57;5.85;;;2.30;99.90;;;;;;4164630;28;20088;-83
2021/01/24 06:08:42;;;;;;;10.52;6.25;;;2.30;99.90;;;;;;4148381;28;20046;-83
2021/01/24 06:10:43;;;;;;;12.68;6.85;;;2.30;99.90;;;;;;4163689;28;20043;-83
2021/01/24 06:12:46;;;;;;;14.80;7.32;;;2.30;99.90;;;;;;4148158;28;20034;-83
2021/01/24 06:15:03;;;;;;;15.27;8.05;;;2.30;99.90;;;;;;4180993;28;20139;-83
2021/01/24 06:17:28;;;;;;;16.38;8.57;;;2.30;99.90;;;;;;4163277;28;20084;-83
2021/01/24 06:19:40;;;;;;;16.13;7.78;;;2.30;99.90;;;;;;4170325;28;20037;-83
2021/01/24 06:21:47;;;;;;;13.57;8.37;;;2.40;99.90;;;;;;4146443;28;20040;-83
2021/01/24 06:23:57;;;;;;;18.77;9.13;;;2.40;99.90;;;;;;4149542;28;20302;-83
2021/01/24 06:26:12;;;;;;;16.20;8.48;;;2.40;99.90;;;;;;4175907;28;20036;-83
2021/01/24 06:28:31;;;;;;;16.30;8.43;;;2.40;99.90;;;;;;4155616;28;20026;-83
2021/01/24 06:30:34;;;;;;;18.15;9.23;;;2.40;99.90;;;;;;4186454;28;20036;-83
2021/01/24 06:32:34;;;;;;;15.70;9.20;;;2.40;99.90;;;;;;4162435;28;20084;-83
2021/01/24 06:34:38;;;;;;;18.75;9.63;;;2.40;99.90;;;;;;4146246;28;20070;-83
2021/01/24 06:37:09;;;;;;;18.17;9.77;;;2.50;99.90;;;;;;4160834;28;20124;-83
2021/01/24 06:39:12;;;;;;;19.55;11.13;;;2.50;99.90;;;;;;4158448;28;20044;-83
2021/01/24 06:41:42;;;;;;;20.98;11.52;;;2.50;99.90;;;;;;4107098;28;20050;-83
2021/01/24 06:43:50;;;;;;;22.42;11.55;;;2.50;99.90;;;;;;4158257;28;20029;-83
2021/01/24 06:45:52;;;;;;;20.30;11.88;;;2.60;99.90;;;;;;4169695;28;20026;-83
2021/01/24 06:47:54;;;;;;;23.58;11.93;;;2.60;99.90;;;;;;4179550;28;20090;-83
2021/01/24 06:49:55;;;;;;;;;;;2.60;99.90;;;;;;4166304;28;20087;-83
2021/01/24 06:52:23;;;;;;;22.55;12.38;;;2.60;99.90;;;;;;4148907;28;19953;-83
2021/01/24 06:54:27;;;;;;;22.80;11.32;;;2.60;99.90;;;;;;4160972;28;20047;-83
2021/01/24 06:56:42;;;;;;;20.67;11.68;;;2.60;99.90;;;;;;4173689;28;20133;-83
2021/01/24 06:58:51;;;;;;;20.58;12.13;;;2.60;99.90;;;;;;4156931;28;20056;-83
2021/01/24 07:01:30;;;;;;;23.00;12.63;;;2.60;99.90;;;;;;4162453;28;20048;-83
2021/01/24 07:03:31;;;;;;;20.75;12.23;;;2.60;99.90;;;;;;4128930;28;20038;-83
2021/01/24 07:05:32;;;;;;;22.70;12.63;;;2.70;99.90;;;;;;4148803;28;20387;-83
2021/01/24 07:07:37;;;;;;;22.15;10.50;;;2.70;99.90;;;;;;4154143;28;20029;-83
2021/01/24 07:09:42;;;;;;;18.10;10.63;;;2.70;99.90;;;;;;4160795;28;20123;-83
2021/01/24 07:11:50;;;;;;;19.15;11.10;;;2.70;99.90;;;;;;4159934;28;20079;-83
2021/01/24 07:13:51;;;;;;;16.17;10.15;;;2.70;99.90;;;;;;4151734;28;20030;-83
2021/01/24 07:15:56;;;;;;;17.95;10.50;;;2.70;99.90;;;;;;4154226;28;20148;-83
2021/01/24 07:18:01;;;;;;;17.40;10.50;;;2.70;99.90;;;;;;4173328;28;20033;-83
2021/01/24 07:20:04;;;;;;;18.00;10.85;;;2.70;99.90;;;;;;4163446;28;20053;-83
2021/01/24 07:22:07;;;;;;;18.50;10.57;;;2.70;99.90;;;;;;4162340;28;20033;-84
2021/01/24 07:24:08;;;;;;;19.40;11.38;;;2.80;99.90;;;;;;4147205;28;20034;-83
2021/01/24 07:26:12;;;;;;;19.15;10.95;;;2.70;99.90;;;;;;4146667;28;20490;-83
2021/01/24 07:28:16;;;;;;;19.60;10.70;;;2.70;99.90;;;;;;4156425;28;20033;-83
2021/01/24 07:30:20;;;;;;;17.02;10.77;;;2.80;99.90;;;;;;4162378;28;20042;-83
2021/01/24 07:32:23;;;;;;;17.95;10.88;;;2.80;99.90;;;;;;4145660;28;20026;-83
2021/01/24 07:34:25;;;;;;;26.80;12.02;;;2.80;99.90;;;;;;4159177;28;20505;-83
2021/01/24 07:36:26;;;;;;;22.85;11.75;;;2.80;99.90;;;;;;4159669;28;20144;-83
2021/01/24 07:38:28;;;;;;;19.30;11.77;;;2.80;99.90;;;;;;4147616;28;20049;-83
2021/01/24 07:40:36;;;;;;;20.88;11.45;;;2.80;99.90;;;;;;4165639;28;20053;-83
2021/01/24 07:42:47;;;;;;;19.42;11.57;;;2.80;99.90;;;;;;4167236;28;20451;-83
2021/01/24 07:44:48;;;;;;;19.67;11.50;;;2.90;99.90;;;;;;4165880;28;20025;-83
2021/01/24 07:46:49;;;;;;;18.65;11.93;;;2.90;99.90;;;;;;4157196;28;20075;-83
2021/01/24 07:48:49;;;;;;;25.55;12.70;;;2.90;99.90;;;;;;4166330;28;20033;-83
2021/01/24 07:51:00;;;;;;;23.58;12.55;;;2.90;99.90;;;;;;4151733;28;20026;-83
2021/01/24 07:53:02;;;;;;;21.83;11.88;;;2.90;99.90;;;;;;4166048;28;20467;-84
2021/01/24 07:55:03;;;;;;;21.52;12.50;;;2.90;99.90;;;;;;4168672;28;20034;-83
2021/01/24 07:57:05;;;;;;;24.63;12.60;;;2.90;99.90;;;;;;4147473;28;20038;-83
2021/01/24 07:59:06;;;;;;;20.93;12.13;;;3.00;99.90;;;;;;4157036;28;20393;-82
2021/01/24 08:01:08;;;;;;;20.02;12.20;;;3.00;99.90;;;;;;4153161;28;20732;-82
2021/01/24 08:03:09;;;;;;;21.15;11.60;;;2.90;99.90;;;;;;4147783;28;20064;-81
2021/01/24 08:05:10;;;;;;;17.67;10.95;;;3.00;99.90;;;;;;4160864;28;20033;-80
2021/01/24 08:07:11;;;;;;;18.58;10.77;;;3.00;99.90;;;;;;4184978;28;20072;-81
2021/01/24 08:09:12;;;;;;;18.35;10.70;;;3.00;99.90;;;;;;4161361;28;20029;-81
2021/01/24 08:11:13;;;;;;;15.85;9.77;;;3.00;99.90;;;;;;4149624;28;20044;-81
2021/01/24 08:13:15;;;;;;;16.02;9.25;;;3.00;99.90;;;;;;4166791;28;20041;-81
2021/01/24 08:15:15;;;;;;;16.65;10.35;;;3.00;99.90;;;;;;4163834;28;20041;-81
2021/01/24 08:17:18;;;;;;;20.67;10.70;;;3.10;99.90;;;;;;4145508;28;20045;-81
2021/01/24 08:19:25;;;;;;;16.27;9.00;;;3.00;99.90;;;;;;4148638;28;20038;-81
2021/01/24 08:21:27;;;;;;;14.05;8.85;;;3.10;99.90;;;;;;4159519;28;20044;-81
2021/01/24 08:23:28;;;;;;;15.75;9.10;;;3.10;99.90;;;;;;4159795;28;20098;-81
2021/01/24 08:25:29;;;;;;;14.45;8.57;;;3.10;99.90;;;;;;4159837;28;20045;-81
2021/01/24 08:27:40;;;;;;;17.42;9.45;;;3.10;99.90;;;;;;4150266;28;20742;-82
2021/01/24 08:29:40;;;;;;;14.93;9.23;;;3.10;99.90;;;;;;4178493;28;20028;-81
2021/01/24 08:31:42;;;;;;;12.80;7.50;;;3.10;99.90;;;;;;4167042;28;20561;-81
2021/01/24 08:33:45;;;;;;;12.75;8.27;;;3.10;99.90;;;;;;4161645;28;20029;-81
2021/01/24 08:35:47;;;;;;;11.93;8.02;;;3.20;99.90;;;;;;4177927;28;20025;-81
2021/01/24 08:37:48;;;;;;;11.68;7.80;;;3.20;99.90;;;;;;4145331;28;20033;-81
2021/01/24 08:39:50;;;;;;;12.82;8.02;;;3.20;99.90;;;;;;4161192;28;20577;-81
2021/01/24 08:41:52;;;;;;;16.57;8.30;;;3.20;99.90;;;;;;4160300;28;20030;-81
2021/01/24 08:44:13;;;;;;;14.15;8.60;;;3.20;99.90;;;;;;4175366;28;20264;-82
2021/01/24 08:46:25;;;;;;;11.40;7.18;;;3.20;99.90;;;;;;4156717;28;20088;-81
2021/01/24 08:48:27;;;;;;;11.35;6.95;;;3.20;99.90;;;;;;4156209;28;20033;-81
2021/01/24 08:50:31;;;;;;;9.75;6.80;;;3.10;99.90;;;;;;4156459;28;20030;-81
2021/01/24 08:52:33;;;;;;;8.70;5.88;;;3.10;99.90;;;;;;4141737;28;20054;-81
2021/01/24 08:54:45;;;;;;;14.63;6.65;;;3.10;99.90;;;;;;4161291;28;20044;-80
2021/01/24 08:57:09;;;;;;;9.48;5.72;;;3.10;99.90;;;;;;4145227;28;20022;-80
2021/01/24 08:59:28;;;;;;;8.07;5.35;;;3.00;99.90;;;;;;4158554;28;20060;-81
2021/01/24 09:01:52;;;;;;;7.32;4.95;;;3.10;99.90;;;;;;4160260;28;20524;-81
2021/01/24 09:03:52;;;;;;;7.60;5.10;;;3.10;99.90;;;;;;4158376;28;20109;-81
2021/01/24 09:06:18;;;;;;;9.23;4.47;;;3.10;99.90;;;;;;4161182;28;20081;-81
2021/01/24 09:08:28;;;;;;;8.95;5.25;;;3.10;99.90;;;;;;4171511;28;20139;-81
2021/01/24 09:10:31;;;;;;;7.93;4.60;;;3.00;99.90;;;;;;4174073;28;20025;-81
2021/01/24 09:12:32;;;;;;;8.23;4.82;;;3.10;99.90;;;;;;4154772;28;20507;-81
2021/01/24 09:14:33;;;;;;;6.95;4.80;;;3.10;99.90;;;;;;4146973;28;20029;-81
2021/01/24 09:16:34;;;;;;;7.13;4.53;;;3.10;99.90;;;;;;4148959;28;20053;-81
2021/01/24 09:18:35;;;;;;;6.95;4.30;;;3.10;99.90;;;;;;4163799;28;20044;-81
2021/01/24 09:20:36;;;;;;;6.70;4.67;;;3.10;99.90;;;;;;4150980;28;20504;-81
2021/01/24 09:22:37;;;;;;;8.07;4.97;;;3.10;99.90;;;;;;4163675;28;20037;-81
2021/01/24 09:24:39;;;;;;;5.90;4.50;;;3.10;99.90;;;;;;4148558;28;20648;-81
2021/01/24 09:26:40;;;;;;;6.65;4.15;;;3.10;99.90;;;;;;4164623;28;20037;-81
2021/01/24 09:28:46;;;;;;;4.40;3.50;;;3.10;99.90;;;;;;4163849;28;20037;-81
2021/01/24 09:30:47;;;;;;;4.75;3.40;;;3.10;99.90;;;;;;4149097;28;20105;-81
2021/01/24 09:32:47;;;;;;;4.82;3.42;;;3.10;99.90;;;;;;4164818;28;20026;-81
2021/01/24 09:34:48;;;;;;;5.30;3.25;;;3.20;99.90;;;;;;4172040;28;20428;-81
2021/01/24 09:36:49;;;;;;;4.25;3.25;;;3.10;99.90;;;;;;4163993;28;20041;-81
2021/01/24 09:38:51;;;;;;;5.43;3.60;;;3.10;99.90;;;;;;4170292;28;20037;-81
2021/01/24 09:41:04;;;;;;;4.00;3.22;;;3.20;99.90;;;;;;4163610;28;20076;-82
2021/01/24 09:43:05;;;;;;;5.00;3.20;;;3.20;99.90;;;;;;4147484;28;20359;-81
2021/01/24 09:45:06;;;;;;;4.55;3.25;;;3.10;99.90;;;;;;4180211;28;20044;-81
2021/01/24 09:47:11;;;;;;;4.65;3.60;;;3.10;99.90;;;;;;4163325;28;20481;-81
2021/01/24 09:49:11;;;;;;;5.00;3.83;;;3.10;99.90;;;;;;4154109;28;20038;-81
2021/01/24 09:51:12;;;;;;;5.88;4.13;;;3.10;99.90;;;;;;4147775;28;20648;-81
2021/01/24 09:53:12;;;;;;;7.35;3.95;;;3.20;99.90;;;;;;4167550;28;20045;-81
2021/01/24 09:55:13;;;;;;;5.63;4.07;;;3.20;99.90;;;;;;4159830;28;20127;-81
2021/01/24 09:57:14;;;;;;;5.97;4.10;;;3.20;99.90;;;;;;4171720;28;20044;-81
2021/01/24 09:59:15;;;;;;;6.22;4.68;;;3.20;99.90;;;;;;4165203;28;20029;-81
2021/01/24 10:01:16;;;;;;;9.18;5.15;;;3.20;99.90;;;;;;4154486;28;20479;-81
2021/01/24 10:03:17;;;;;;;5.93;4.78;;;3.20;99.90;;;;;;4163387;28;20036;-81
2021/01/24 10:05:18;;;;;;;7.82;5.03;;;3.30;99.90;;;;;;4163154;28;20108;-81
2021/01/24 10:07:18;;;;;;;8.90;6.25;;;3.30;99.90;;;;;;4166295;28;20636;-81
2021/01/24 10:09:21;;;;;;;9.20;5.80;;;3.20;99.90;;;;;;4166669;28;20436;-82
2021/01/24 10:11:23;;;;;;;7.72;5.00;;;3.30;99.90;;;;;;4158372;28;20033;-81
2021/01/24 10:13:25;;;;;;;7.95;6.00;;;3.30;99.90;;;;;;4147274;28;20045;-82
2021/01/24 10:15:26;;;;;;;8.25;5.88;;;3.30;99.90;;;;;;4160854;28;20288;-81
2021/01/24 10:17:27;;;;;;;7.50;5.72;;;3.30;99.90;;;;;;4163420;28;20033;-81
2021/01/24 10:19:36;;;;;;;9.02;5.88;;;3.30;99.90;;;;;;4165009;28;20033;-81
2021/01/24 10:21:37;;;;;;;9.38;6.28;;;3.30;99.90;;;;;;4144671;28;20088;-81
2021/01/24 10:23:46;;;;;;;7.00;5.53;;;3.30;99.90;;;;;;4150434;28;20030;-81
2021/01/24 10:25:49;;;;;;;9.32;6.40;;;3.30;99.90;;;;;;4170866;28;20030;-81
2021/01/24 10:27:50;;;;;;;7.65;5.60;;;3.30;99.90;;;;;;4172340;28;20030;-81
2021/01/24 10:30:06;;;;;;;8.90;5.78;;;3.30;99.90;;;;;;4147246;28;20124;-81
2021/01/24 10:32:15;;;;;;;8.20;5.68;;;3.30;99.90;;;;;;4168748;28;20053;-81
2021/01/24 10:34:16;;;;;;;10.30;6.28;;;3.30;99.90;;;;;;4153696;28;20021;-81
2021/01/24 10:36:16;;;;;;;6.57;5.50;;;3.20;99.90;;;;;;4172965;28;20071;-81
2021/01/24 10:38:21;;;;;;;8.55;5.45;;;3.30;99.90;;;;;;4157935;28;20451;-81
2021/01/24 10:40:21;;;;;;;6.22;4.90;;;3.30;99.90;;;;;;4163773;28;20041;-81
2021/01/24 10:42:22;;;;;;;9.02;5.75;;;3.30;99.90;;;;;;4166393;28;20108;-81
2021/01/24 10:44:22;;;;;;;6.75;5.30;;;3.30;99.90;;;;;;4162458;28;20026;-81
2021/01/24 10:46:23;;;;;;;5.97;4.95;;;3.30;99.90;;;;;;4172422;28;20116;-81
2021/01/24 10:48:30;;;;;;;7.30;5.38;;;3.40;99.90;;;;;;4175918;28;20021;-80
2021/01/24 10:50:31;;;;;;;7.95;5.43;;;3.40;99.90;;;;;;4146228;28;20022;-81